Terminal Aerodrome Forecast
Issued by NWS

Home | Current Version | Previous Version | Text Only | Print | Product List | Glossary Off
Versions: 1 2 3 4 5 6 7 8 9 10 11 12 13 14 15 16 17 18 19

176
FTUS43 KOAX 272344
TAFCDR
TAF
KCDR 272344Z 2800/2824 08009KT 6SM -RA OVC025
     FM280900 05015KT 4SM -RASN BR BKN010 OVC015=

USA.gov is the U.S. government's official web portal to all federal, state and local government web resources and services.